sensor_id;sensor_type;location;lat;lon;timestamp;pressure;altitude;pressure_sealevel;temperature;humidity
41513;BME280;27244;59.940;30.280;2023-12-20T00:00:35;98441.56;;;25.24;28.42
41513;BME280;27244;59.940;30.280;2023-12-20T00:03:03;98437.72;;;25.21;28.10
41513;BME280;27244;59.940;30.280;2023-12-20T00:05:30;98444.63;;;25.20;28.32
41513;BME280;27244;59.940;30.280;2023-12-20T00:07:57;98445.91;;;25.19;28.08
41513;BME280;27244;59.940;30.280;2023-12-20T00:10:24;98443.56;;;25.18;27.91
41513;BME280;27244;59.940;30.280;2023-12-20T00:12:52;98456.16;;;25.17;27.91
41513;BME280;27244;59.940;30.280;2023-12-20T00:15:18;98456.66;;;25.15;27.95
41513;BME280;27244;59.940;30.280;2023-12-20T00:17:45;98441.78;;;25.15;27.77
41513;BME280;27244;59.940;30.280;2023-12-20T00:20:12;98442.56;;;25.15;27.89
41513;BME280;27244;59.940;30.280;2023-12-20T00:22:39;98445.13;;;25.13;27.63
41513;BME280;27244;59.940;30.280;2023-12-20T00:25:07;98452.81;;;25.13;27.71
41513;BME280;27244;59.940;30.280;2023-12-20T00:27:33;98444.06;;;25.11;27.48
41513;BME280;27244;59.940;30.280;2023-12-20T00:30:02;98453.84;;;25.10;27.59
41513;BME280;27244;59.940;30.280;2023-12-20T00:32:28;98433.06;;;25.13;27.15
41513;BME280;27244;59.940;30.280;2023-12-20T00:34:55;98438.97;;;25.09;27.43
41513;BME280;27244;59.940;30.280;2023-12-20T00:37:22;98436.91;;;25.10;26.98
41513;BME280;27244;59.940;30.280;2023-12-20T00:39:49;98426.66;;;25.07;27.25
41513;BME280;27244;59.940;30.280;2023-12-20T00:42:16;98415.38;;;25.07;27.16
41513;BME280;27244;59.940;30.280;2023-12-20T00:44:42;98409.44;;;25.05;26.89
41513;BME280;27244;59.940;30.280;2023-12-20T00:47:10;98411.50;;;25.04;27.11
41513;BME280;27244;59.940;30.280;2023-12-20T00:49:39;98412.03;;;25.03;27.00
41513;BME280;27244;59.940;30.280;2023-12-20T00:52:06;98402.78;;;25.02;26.99
41513;BME280;27244;59.940;30.280;2023-12-20T00:54:33;98411.25;;;25.02;26.86
41513;BME280;27244;59.940;30.280;2023-12-20T00:57:00;98407.66;;;25.02;26.95
41513;BME280;27244;59.940;30.280;2023-12-20T00:59:26;98404.59;;;25.00;26.88
41513;BME280;27244;59.940;30.280;2023-12-20T01:01:53;98404.59;;;25.00;26.82
41513;BME280;27244;59.940;30.280;2023-12-20T01:04:21;98402.25;;;24.98;26.67
41513;BME280;27244;59.940;30.280;2023-12-20T01:06:48;98397.41;;;24.98;26.53
41513;BME280;27244;59.940;30.280;2023-12-20T01:09:15;98388.66;;;24.96;26.76
41513;BME280;27244;59.940;30.280;2023-12-20T01:11:41;98383.78;;;24.97;26.53
41513;BME280;27244;59.940;30.280;2023-12-20T01:14:08;98375.31;;;24.97;26.45
41513;BME280;27244;59.940;30.280;2023-12-20T01:16:35;98379.94;;;24.94;26.47
41513;BME280;27244;59.940;30.280;2023-12-20T01:19:01;98377.63;;;24.93;26.35
41513;BME280;27244;59.940;30.280;2023-12-20T01:21:29;98388.91;;;24.93;26.36
41513;BME280;27244;59.940;30.280;2023-12-20T01:23:56;98396.59;;;24.92;26.37
41513;BME280;27244;59.940;30.280;2023-12-20T01:26:23;98386.09;;;24.93;26.24
41513;BME280;27244;59.940;30.280;2023-12-20T01:28:50;98386.84;;;24.93;26.05
41513;BME280;27244;59.940;30.280;2023-12-20T01:31:16;98400.19;;;24.93;26.21
41513;BME280;27244;59.940;30.280;2023-12-20T01:33:43;98376.84;;;24.92;26.27
41513;BME280;27244;59.940;30.280;2023-12-20T01:36:10;98387.09;;;24.90;26.00
41513;BME280;27244;59.940;30.280;2023-12-20T01:38:38;98393.03;;;24.92;26.02
41513;BME280;27244;59.940;30.280;2023-12-20T01:41:04;98382.25;;;24.90;25.83
41513;BME280;27244;59.940;30.280;2023-12-20T01:43:31;98377.88;;;24.89;25.77
41513;BME280;27244;59.940;30.280;2023-12-20T01:45:58;98373.00;;;24.90;25.86
41513;BME280;27244;59.940;30.280;2023-12-20T01:48:25;98369.41;;;24.89;25.81
41513;BME280;27244;59.940;30.280;2023-12-20T01:50:54;98360.94;;;24.89;25.78
41513;BME280;27244;59.940;30.280;2023-12-20T01:53:21;98360.69;;;24.87;26.03
41513;BME280;27244;59.940;30.280;2023-12-20T01:55:52;98359.44;;;24.88;25.74
41513;BME280;27244;59.940;30.280;2023-12-20T01:58:20;98365.06;;;24.88;25.65
41513;BME280;27244;59.940;30.280;2023-12-20T02:00:48;98360.69;;;24.87;25.55
41513;BME280;27244;59.940;30.280;2023-12-20T02:03:15;98354.28;;;24.87;25.47
41513;BME280;27244;59.940;30.280;2023-12-20T02:05:42;98356.34;;;24.86;25.83
41513;BME280;27244;59.940;30.280;2023-12-20T02:08:09;98358.13;;;24.84;25.50
41513;BME280;27244;59.940;30.280;2023-12-20T02:10:35;98358.91;;;24.84;25.64
41513;BME280;27244;59.940;30.280;2023-12-20T02:13:06;98358.59;;;24.82;25.65
41513;BME280;27244;59.940;30.280;2023-12-20T02:15:33;98358.59;;;24.82;25.34
41513;BME280;27244;59.940;30.280;2023-12-20T02:18:02;98350.66;;;24.81;25.64
41513;BME280;27244;59.940;30.280;2023-12-20T02:20:29;98369.34;;;24.78;25.41
41513;BME280;27244;59.940;30.280;2023-12-20T02:22:57;98349.63;;;24.78;25.64
41513;BME280;27244;59.940;30.280;2023-12-20T02:25:23;98349.38;;;24.76;25.54
41513;BME280;27244;59.940;30.280;2023-12-20T02:27:50;98352.19;;;24.76;25.60
41513;BME280;27244;59.940;30.280;2023-12-20T02:30:17;98359.09;;;24.75;25.44
41513;BME280;27244;59.940;30.280;2023-12-20T02:32:46;98323.47;;;24.67;25.60
41513;BME280;27244;59.940;30.280;2023-12-20T02:35:15;98344.75;;;24.79;25.31
41513;BME280;27244;59.940;30.280;2023-12-20T02:37:42;98349.88;;;24.75;25.26
41513;BME280;27244;59.940;30.280;2023-12-20T02:40:10;98351.41;;;24.76;25.26
41513;BME280;27244;59.940;30.280;2023-12-20T02:42:37;98341.41;;;24.75;25.21
41513;BME280;27244;59.940;30.280;2023-12-20T02:45:04;98345.00;;;24.75;25.22
41513;BME280;27244;59.940;30.280;2023-12-20T02:47:31;98337.84;;;24.74;25.16
41513;BME280;27244;59.940;30.280;2023-12-20T02:49:57;98336.28;;;24.73;25.49
41513;BME280;27244;59.940;30.280;2023-12-20T02:52:24;98336.28;;;24.73;25.48
41513;BME280;27244;59.940;30.280;2023-12-20T02:54:51;98341.94;;;24.73;24.95
41513;BME280;27244;59.940;30.280;2023-12-20T02:57:19;98351.66;;;24.72;25.33
41513;BME280;27244;59.940;30.280;2023-12-20T02:59:46;98350.09;;;24.71;25.07
41513;BME280;27244;59.940;30.280;2023-12-20T03:02:12;98344.47;;;24.71;24.97
41513;BME280;27244;59.940;30.280;2023-12-20T03:04:39;98344.47;;;24.71;25.05
41513;BME280;27244;59.940;30.280;2023-12-20T03:07:06;98338.84;;;24.71;25.05
41513;BME280;27244;59.940;30.280;2023-12-20T03:09:33;98333.19;;;24.71;25.04
41513;BME280;27244;59.940;30.280;2023-12-20T03:11:59;98341.66;;;24.71;25.02
41513;BME280;27244;59.940;30.280;2023-12-20T03:14:30;98333.19;;;24.71;24.98
41513;BME280;27244;59.940;30.280;2023-12-20T03:16:57;98339.34;;;24.70;24.96
41513;BME280;27244;59.940;30.280;2023-12-20T03:19:24;98357.28;;;24.72;24.96
41513;BME280;27244;59.940;30.280;2023-12-20T03:21:51;98348.59;;;24.70;24.93
41513;BME280;27244;59.940;30.280;2023-12-20T03:24:20;98345.78;;;24.70;24.97
41513;BME280;27244;59.940;30.280;2023-12-20T03:26:47;98337.81;;;24.69;24.95
41513;BME280;27244;59.940;30.280;2023-12-20T03:29:13;98340.13;;;24.70;24.87
41513;BME280;27244;59.940;30.280;2023-12-20T03:31:41;98347.03;;;24.69;24.79
41513;BME280;27244;59.940;30.280;2023-12-20T03:34:08;98351.91;;;24.69;25.09
41513;BME280;27244;59.940;30.280;2023-12-20T03:36:35;98351.91;;;24.69;24.97
41513;BME280;27244;59.940;30.280;2023-12-20T03:39:02;98353.94;;;24.68;25.00
41513;BME280;27244;59.940;30.280;2023-12-20T03:41:29;98353.94;;;24.68;25.00
41513;BME280;27244;59.940;30.280;2023-12-20T03:43:56;98350.34;;;24.68;24.77
41513;BME280;27244;59.940;30.280;2023-12-20T03:46:23;98343.94;;;24.67;24.73
41513;BME280;27244;59.940;30.280;2023-12-20T03:48:54;98348.84;;;24.67;25.12
41513;BME280;27244;59.940;30.280;2023-12-20T03:51:20;98339.59;;;24.66;24.68
41513;BME280;27244;59.940;30.280;2023-12-20T03:53:47;98348.06;;;24.66;24.90
41513;BME280;27244;59.940;30.280;2023-12-20T03:56:14;98339.31;;;24.64;25.05
41513;BME280;27244;59.940;30.280;2023-12-20T03:58:41;98335.25;;;24.65;24.86
41513;BME280;27244;59.940;30.280;2023-12-20T04:01:09;98336.50;;;24.64;24.93
41513;BME280;27244;59.940;30.280;2023-12-20T04:03:36;98337.81;;;24.63;24.97
41513;BME280;27244;59.940;30.280;2023-12-20T04:06:04;98340.63;;;24.63;24.67
41513;BME280;27244;59.940;30.280;2023-12-20T04:08:31;98341.38;;;24.64;24.79
41513;BME280;27244;59.940;30.280;2023-12-20T04:10:58;98332.16;;;24.63;24.63
41513;BME280;27244;59.940;30.280;2023-12-20T04:13:24;98337.81;;;24.63;24.73
41513;BME280;27244;59.940;30.280;2023-12-20T04:15:51;98352.66;;;24.64;24.73
41513;BME280;27244;59.940;30.280;2023-12-20T04:18:18;98346.25;;;24.63;24.57
41513;BME280;27244;59.940;30.280;2023-12-20T04:20:46;98353.94;;;24.63;24.45
41513;BME280;27244;59.940;30.280;2023-12-20T04:23:15;98365.72;;;24.61;24.52
41513;BME280;27244;59.940;30.280;2023-12-20T04:25:41;98359.31;;;24.61;24.56
41513;BME280;27244;59.940;30.280;2023-12-20T04:28:08;98350.84;;;24.61;24.38
41513;BME280;27244;59.940;30.280;2023-12-20T04:30:35;98361.34;;;24.60;24.55
41513;BME280;27244;59.940;30.280;2023-12-20T04:33:01;98361.34;;;24.60;24.64
41513;BME280;27244;59.940;30.280;2023-12-20T04:35:28;98373.91;;;24.59;24.83
41513;BME280;27244;59.940;30.280;2023-12-20T04:37:55;98357.00;;;24.59;24.48
41513;BME280;27244;59.940;30.280;2023-12-20T04:40:23;98359.06;;;24.59;24.61
41513;BME280;27244;59.940;30.280;2023-12-20T04:42:50;98363.16;;;24.58;24.39
41513;BME280;27244;59.940;30.280;2023-12-20T04:45:17;98355.97;;;24.57;24.52
41513;BME280;27244;59.940;30.280;2023-12-20T04:47:47;98363.16;;;24.58;24.33
41513;BME280;27244;59.940;30.280;2023-12-20T04:50:14;98358.03;;;24.56;24.43
41513;BME280;27244;59.940;30.280;2023-12-20T04:52:41;98362.91;;;24.56;24.44
41513;BME280;27244;59.940;30.280;2023-12-20T04:55:08;98355.22;;;24.56;24.28
41513;BME280;27244;59.940;30.280;2023-12-20T04:57:39;98354.44;;;24.56;24.50
41513;BME280;27244;59.940;30.280;2023-12-20T05:00:06;98377.47;;;24.54;24.31
41513;BME280;27244;59.940;30.280;2023-12-20T05:02:33;98369.03;;;24.54;24.49
41513;BME280;27244;59.940;30.280;2023-12-20T05:05:00;98374.66;;;24.54;24.32
41513;BME280;27244;59.940;30.280;2023-12-20T05:07:27;98386.72;;;24.55;24.52
41513;BME280;27244;59.940;30.280;2023-12-20T05:09:53;98391.56;;;24.54;24.29
41513;BME280;27244;59.940;30.280;2023-12-20T05:12:20;98400.81;;;24.55;24.33
41513;BME280;27244;59.940;30.280;2023-12-20T05:14:48;98395.66;;;24.53;24.27
41513;BME280;27244;59.940;30.280;2023-12-20T05:17:15;98391.31;;;24.52;24.31
41513;BME280;27244;59.940;30.280;2023-12-20T05:19:42;98391.31;;;24.52;24.26
41513;BME280;27244;59.940;30.280;2023-12-20T05:22:08;98401.28;;;24.53;24.39
41513;BME280;27244;59.940;30.280;2023-12-20T05:24:35;98396.44;;;24.54;24.34
41513;BME280;27244;59.940;30.280;2023-12-20T05:27:02;98388.50;;;24.52;24.39
41513;BME280;27244;59.940;30.280;2023-12-20T05:29:28;98405.41;;;24.52;24.39
41513;BME280;27244;59.940;30.280;2023-12-20T05:31:57;98401.28;;;24.53;24.39
41513;BME280;27244;59.940;30.280;2023-12-20T05:34:24;98385.69;;;24.52;24.39
41513;BME280;27244;59.940;30.280;2023-12-20T05:36:51;98375.69;;;24.51;24.21
41513;BME280;27244;59.940;30.280;2023-12-20T05:39:17;98386.94;;;24.51;24.26
41513;BME280;27244;59.940;30.280;2023-12-20T05:41:44;98378.50;;;24.51;24.47
41513;BME280;27244;59.940;30.280;2023-12-20T05:44:11;98388.50;;;24.52;24.27
41513;BME280;27244;59.940;30.280;2023-12-20T05:46:37;98387.72;;;24.52;24.61
41513;BME280;27244;59.940;30.280;2023-12-20T05:49:06;98382.09;;;24.52;24.33
41513;BME280;27244;59.940;30.280;2023-12-20T05:51:33;98384.38;;;24.53;24.48
41513;BME280;27244;59.940;30.280;2023-12-20T05:54:02;98375.44;;;24.55;24.51
41513;BME280;27244;59.940;30.280;2023-12-20T05:56:29;98387.47;;;24.55;24.83
41513;BME280;27244;59.940;30.280;2023-12-20T05:58:56;98382.63;;;24.56;24.50
41513;BME280;27244;59.940;30.280;2023-12-20T06:01:24;98382.09;;;24.57;24.96
41513;BME280;27244;59.940;30.280;2023-12-20T06:03:50;98379.28;;;24.57;24.99
41513;BME280;27244;59.940;30.280;2023-12-20T06:06:19;98392.88;;;24.59;25.07
41513;BME280;27244;59.940;30.280;2023-12-20T06:08:45;98385.97;;;24.60;25.05
41513;BME280;27244;59.940;30.280;2023-12-20T06:11:12;98382.38;;;24.59;24.96
41513;BME280;27244;59.940;30.280;2023-12-20T06:13:40;98387.50;;;24.61;25.26
41513;BME280;27244;59.940;30.280;2023-12-20T06:16:06;98377.78;;;24.62;25.06
41513;BME280;27244;59.940;30.280;2023-12-20T06:18:33;98380.09;;;24.63;25.11
41513;BME280;27244;59.940;30.280;2023-12-20T06:21:02;98383.66;;;24.64;25.36
41513;BME280;27244;59.940;30.280;2023-12-20T06:23:30;98387.25;;;24.64;25.60
41513;BME280;27244;59.940;30.280;2023-12-20T06:25:57;98385.72;;;24.63;25.67
41513;BME280;27244;59.940;30.280;2023-12-20T06:28:23;98392.88;;;24.64;25.76
41513;BME280;27244;59.940;30.280;2023-12-20T06:30:50;98397.00;;;24.63;25.62
41513;BME280;27244;59.940;30.280;2023-12-20T06:33:19;98406.97;;;24.64;25.87
41513;BME280;27244;59.940;30.280;2023-12-20T06:35:46;98394.94;;;24.64;26.10
41513;BME280;27244;59.940;30.280;2023-12-20T06:38:13;98402.13;;;24.65;26.04
41513;BME280;27244;59.940;30.280;2023-12-20T06:40:41;98412.91;;;24.66;26.10
41513;BME280;27244;59.940;30.280;2023-12-20T06:43:09;98400.06;;;24.65;26.23
41513;BME280;27244;59.940;30.280;2023-12-20T06:45:38;98391.88;;;24.67;26.22
41513;BME280;27244;59.940;30.280;2023-12-20T06:48:06;98402.16;;;24.70;26.33
41513;BME280;27244;59.940;30.280;2023-12-20T06:50:33;98407.28;;;24.72;26.73
41513;BME280;27244;59.940;30.280;2023-12-20T06:52:59;98401.13;;;24.73;26.78
41513;BME280;27244;59.940;30.280;2023-12-20T06:55:32;98403.72;;;24.77;26.65
41513;BME280;27244;59.940;30.280;2023-12-20T06:58:00;98406.28;;;24.80;26.87
41513;BME280;27244;59.940;30.280;2023-12-20T07:00:27;98403.72;;;24.82;27.33
41513;BME280;27244;59.940;30.280;2023-12-20T07:02:56;98404.78;;;24.85;27.12
41513;BME280;27244;59.940;30.280;2023-12-20T07:05:22;98404.28;;;24.86;27.32
41513;BME280;27244;59.940;30.280;2023-12-20T07:07:52;98400.97;;;24.88;27.19
41513;BME280;27244;59.940;30.280;2023-12-20T07:10:19;98406.84;;;24.90;27.38
41513;BME280;27244;59.940;30.280;2023-12-20T07:12:46;98411.22;;;24.91;27.65
41513;BME280;27244;59.940;30.280;2023-12-20T07:15:15;98414.03;;;24.91;27.46
41513;BME280;27244;59.940;30.280;2023-12-20T07:17:44;98408.41;;;24.91;27.51
41513;BME280;27244;59.940;30.280;2023-12-20T07:20:11;98421.97;;;24.92;27.47
41513;BME280;27244;59.940;30.280;2023-12-20T07:22:41;98431.22;;;24.93;27.75
41513;BME280;27244;59.940;30.280;2023-12-20T07:25:08;98423.03;;;24.95;27.53
41513;BME280;27244;59.940;30.280;2023-12-20T07:27:35;98431.47;;;24.95;27.60
41513;BME280;27244;59.940;30.280;2023-12-20T07:30:05;98444.28;;;24.96;27.70
41513;BME280;27244;59.940;30.280;2023-12-20T07:32:33;98446.38;;;24.95;27.60
41513;BME280;27244;59.940;30.280;2023-12-20T07:35:00;98443.53;;;24.95;27.89
41513;BME280;27244;59.940;30.280;2023-12-20T07:37:28;98457.13;;;24.97;27.70
41513;BME280;27244;59.940;30.280;2023-12-20T07:39:55;98451.47;;;24.97;27.86
41513;BME280;27244;59.940;30.280;2023-12-20T07:42:21;98451.47;;;24.97;27.65
41513;BME280;27244;59.940;30.280;2023-12-20T07:44:48;98467.91;;;24.98;28.05
41513;BME280;27244;59.940;30.280;2023-12-20T07:47:15;98461.00;;;25.00;27.92
41513;BME280;27244;59.940;30.280;2023-12-20T07:49:51;98468.69;;;24.99;28.13
41513;BME280;27244;59.940;30.280;2023-12-20T07:52:18;98471.75;;;25.01;28.00
41513;BME280;27244;59.940;30.280;2023-12-20T07:54:45;98472.53;;;25.02;28.15
41513;BME280;27244;59.940;30.280;2023-12-20T07:57:12;98481.00;;;25.02;28.12
41513;BME280;27244;59.940;30.280;2023-12-20T07:59:38;98488.97;;;25.03;27.81
41513;BME280;27244;59.940;30.280;2023-12-20T08:02:05;98490.47;;;25.04;27.93
41513;BME280;27244;59.940;30.280;2023-12-20T08:04:32;98500.50;;;25.05;27.99
41513;BME280;27244;59.940;30.280;2023-12-20T08:07:01;98492.03;;;25.05;28.17
41513;BME280;27244;59.940;30.280;2023-12-20T08:09:27;98497.66;;;25.05;27.93
41513;BME280;27244;59.940;30.280;2023-12-20T08:11:54;98506.91;;;25.06;27.96
41513;BME280;27244;59.940;30.280;2023-12-20T08:14:21;98503.31;;;25.05;28.25
41513;BME280;27244;59.940;30.280;2023-12-20T08:16:47;98509.72;;;25.06;28.08
41513;BME280;27244;59.940;30.280;2023-12-20T08:19:14;98523.84;;;25.06;28.20
41513;BME280;27244;59.940;30.280;2023-12-20T08:21:41;98516.91;;;25.07;28.13
41513;BME280;27244;59.940;30.280;2023-12-20T08:24:09;98518.19;;;25.06;28.38
41513;BME280;27244;59.940;30.280;2023-12-20T08:26:36;98518.97;;;25.06;28.38
41513;BME280;27244;59.940;30.280;2023-12-20T08:29:03;98524.09;;;25.08;28.39
41513;BME280;27244;59.940;30.280;2023-12-20T08:31:29;98529.72;;;25.08;28.42
41513;BME280;27244;59.940;30.280;2023-12-20T08:33:56;98530.50;;;25.08;28.33
41513;BME280;27244;59.940;30.280;2023-12-20T08:36:30;98536.91;;;25.09;28.29
41513;BME280;27244;59.940;30.280;2023-12-20T08:38:56;98537.69;;;25.09;28.25
41513;BME280;27244;59.940;30.280;2023-12-20T08:41:24;98530.78;;;25.10;28.28
41513;BME280;27244;59.940;30.280;2023-12-20T08:43:51;98532.81;;;25.10;28.42
41513;BME280;27244;59.940;30.280;2023-12-20T08:46:18;98535.66;;;25.10;28.61
41513;BME280;27244;59.940;30.280;2023-12-20T08:48:45;98540.75;;;25.11;28.45
41513;BME280;27244;59.940;30.280;2023-12-20T08:51:13;98555.66;;;25.12;28.66
41513;BME280;27244;59.940;30.280;2023-12-20T08:53:39;98539.50;;;25.12;28.59
41513;BME280;27244;59.940;30.280;2023-12-20T08:56:06;98548.75;;;25.13;28.71
41513;BME280;27244;59.940;30.280;2023-12-20T08:58:35;98551.56;;;25.13;28.36
41513;BME280;27244;59.940;30.280;2023-12-20T09:01:07;98553.09;;;25.14;28.29
41513;BME280;27244;59.940;30.280;2023-12-20T09:03:34;98544.66;;;25.14;28.44
41513;BME280;27244;59.940;30.280;2023-12-20T09:06:01;98563.09;;;25.15;28.35
41513;BME280;27244;59.940;30.280;2023-12-20T09:08:27;98561.06;;;25.15;28.37
41513;BME280;27244;59.940;30.280;2023-12-20T09:10:54;98570.28;;;25.16;28.40
41513;BME280;27244;59.940;30.280;2023-12-20T09:13:21;98572.34;;;25.15;28.48
41513;BME280;27244;59.940;30.280;2023-12-20T09:15:54;98561.81;;;25.16;28.61
41513;BME280;27244;59.940;30.280;2023-12-20T09:18:21;98561.81;;;25.16;28.42
41513;BME280;27244;59.940;30.280;2023-12-20T09:20:48;98558.22;;;25.15;28.86
41513;BME280;27244;59.940;30.280;2023-12-20T09:23:15;98572.34;;;25.15;28.81
41513;BME280;27244;59.940;30.280;2023-12-20T09:25:42;98578.25;;;25.17;28.47
41513;BME280;27244;59.940;30.280;2023-12-20T09:28:09;98591.59;;;25.17;28.66
41513;BME280;27244;59.940;30.280;2023-12-20T09:30:36;98587.22;;;25.16;28.53
41513;BME280;27244;59.940;30.280;2023-12-20T09:33:06;98588.78;;;25.17;28.83
41513;BME280;27244;59.940;30.280;2023-12-20T09:35:35;98585.16;;;25.16;28.57
41513;BME280;27244;59.940;30.280;2023-12-20T09:38:02;98610.56;;;25.16;28.68
41513;BME280;27244;59.940;30.280;2023-12-20T09:40:29;98602.88;;;25.17;28.82
41513;BME280;27244;59.940;30.280;2023-12-20T09:43:00;98598.50;;;25.16;28.55
41513;BME280;27244;59.940;30.280;2023-12-20T09:45:29;98613.63;;;25.18;28.88
41513;BME280;27244;59.940;30.280;2023-12-20T09:47:57;98624.66;;;25.16;28.77
41513;BME280;27244;59.940;30.280;2023-12-20T09:50:26;98615.69;;;25.18;28.85
41513;BME280;27244;59.940;30.280;2023-12-20T09:52:53;98624.16;;;25.18;28.92
41513;BME280;27244;59.940;30.280;2023-12-20T09:55:21;98639.03;;;25.18;28.88
41513;BME280;27244;59.940;30.280;2023-12-20T09:57:48;98640.34;;;25.17;28.73
41513;BME280;27244;59.940;30.280;2023-12-20T10:00:15;98645.19;;;25.17;28.91
41513;BME280;27244;59.940;30.280;2023-12-20T10:02:45;98639.56;;;25.17;28.71
41513;BME280;27244;59.940;30.280;2023-12-20T10:05:15;98638.25;;;25.18;28.97
41513;BME280;27244;59.940;30.280;2023-12-20T10:07:45;98653.16;;;25.18;28.72
41513;BME280;27244;59.940;30.280;2023-12-20T10:10:12;98653.91;;;25.19;28.79
41513;BME280;27244;59.940;30.280;2023-12-20T10:12:39;98651.88;;;25.19;28.92
41513;BME280;27244;59.940;30.280;2023-12-20T10:15:06;98661.13;;;25.20;28.80
41513;BME280;27244;59.940;30.280;2023-12-20T10:17:35;98661.88;;;25.20;28.60
41513;BME280;27244;59.940;30.280;2023-12-20T10:20:02;98663.16;;;25.19;29.02
41513;BME280;27244;59.940;30.280;2023-12-20T10:22:34;98667.53;;;25.20;28.79
41513;BME280;27244;59.940;30.280;2023-12-20T10:25:02;98672.41;;;25.20;28.72
41513;BME280;27244;59.940;30.280;2023-12-20T10:27:29;98683.69;;;25.20;28.89
41513;BME280;27244;59.940;30.280;2023-12-20T10:29:58;98682.41;;;25.21;28.94
41513;BME280;27244;59.940;30.280;2023-12-20T10:32:25;98678.03;;;25.20;28.82
41513;BME280;27244;59.940;30.280;2023-12-20T10:34:52;98678.81;;;25.20;29.06
41513;BME280;27244;59.940;30.280;2023-12-20T10:37:19;98688.06;;;25.21;29.06
41513;BME280;27244;59.940;30.280;2023-12-20T10:39:47;98698.06;;;25.22;28.91
41513;BME280;27244;59.940;30.280;2023-12-20T10:42:26;98693.97;;;25.23;29.10
41513;BME280;27244;59.940;30.280;2023-12-20T10:44:56;98696.00;;;25.22;29.08
41513;BME280;27244;59.940;30.280;2023-12-20T10:47:23;98702.44;;;25.23;28.78
41513;BME280;27244;59.940;30.280;2023-12-20T10:49:51;98706.50;;;25.22;28.88
41513;BME280;27244;59.940;30.280;2023-12-20T10:52:18;98705.25;;;25.23;29.03
41513;BME280;27244;59.940;30.280;2023-12-20T10:54:46;98710.88;;;25.23;28.95
41513;BME280;27244;59.940;30.280;2023-12-20T10:57:12;98710.88;;;25.23;29.12
41513;BME280;27244;59.940;30.280;2023-12-20T10:59:41;98719.34;;;25.23;28.97
41513;BME280;27244;59.940;30.280;2023-12-20T11:02:11;98726.56;;;25.24;29.08
41513;BME280;27244;59.940;30.280;2023-12-20T11:04:42;98722.19;;;25.23;29.08
41513;BME280;27244;59.940;30.280;2023-12-20T11:07:15;98731.91;;;25.22;29.13
41513;BME280;27244;59.940;30.280;2023-12-20T11:09:45;98732.69;;;25.22;28.95
41513;BME280;27244;59.940;30.280;2023-12-20T11:12:15;98744.75;;;25.23;29.15
41513;BME280;27244;59.940;30.280;2023-12-20T11:14:48;98752.44;;;25.22;29.21
41513;BME280;27244;59.940;30.280;2023-12-20T11:17:23;98750.41;;;25.23;29.12
41513;BME280;27244;59.940;30.280;2023-12-20T11:20:06;98749.63;;;25.22;28.97
41513;BME280;27244;59.940;30.280;2023-12-20T11:22:36;98765.28;;;25.23;29.03
41513;BME280;27244;59.940;30.280;2023-12-20T11:25:04;98760.91;;;25.22;29.26
41513;BME280;27244;59.940;30.280;2023-12-20T11:27:32;98762.47;;;25.23;29.09
41513;BME280;27244;59.940;30.280;2023-12-20T11:30:02;98761.69;;;25.23;29.28
41513;BME280;27244;59.940;30.280;2023-12-20T11:32:31;98772.47;;;25.24;29.14
41513;BME280;27244;59.940;30.280;2023-12-20T11:35:00;98765.78;;;25.22;29.37
41513;BME280;27244;59.940;30.280;2023-12-20T11:37:28;98772.19;;;25.22;29.40
41513;BME280;27244;59.940;30.280;2023-12-20T11:39:55;98779.13;;;25.21;29.35
41513;BME280;27244;59.940;30.280;2023-12-20T11:42:22;98776.31;;;25.21;29.22
41513;BME280;27244;59.940;30.280;2023-12-20T11:44:49;98776.31;;;25.21;29.29
41513;BME280;27244;59.940;30.280;2023-12-20T11:47:18;98775.53;;;25.21;29.42
41513;BME280;27244;59.940;30.280;2023-12-20T11:49:46;98784.00;;;25.21;29.47
41513;BME280;27244;59.940;30.280;2023-12-20T11:52:13;98786.81;;;25.21;29.36
41513;BME280;27244;59.940;30.280;2023-12-20T11:54:40;98798.09;;;25.21;29.51
41513;BME280;27244;59.940;30.280;2023-12-20T11:57:07;98784.00;;;25.21;29.57
41513;BME280;27244;59.940;30.280;2023-12-20T11:59:34;98783.22;;;25.20;29.36
41513;BME280;27244;59.940;30.280;2023-12-20T12:02:00;98786.03;;;25.20;29.33
41513;BME280;27244;59.940;30.280;2023-12-20T12:04:29;98782.44;;;25.20;29.36
41513;BME280;27244;59.940;30.280;2023-12-20T12:06:56;98792.19;;;25.19;29.43
41513;BME280;27244;59.940;30.280;2023-12-20T12:09:23;98793.44;;;25.18;29.33
41513;BME280;27244;59.940;30.280;2023-12-20T12:11:50;98793.44;;;25.18;29.34
41513;BME280;27244;59.940;30.280;2023-12-20T12:14:16;98795.00;;;25.19;29.42
41513;BME280;27244;59.940;30.280;2023-12-20T12:16:44;98789.88;;;25.17;29.48
41513;BME280;27244;59.940;30.280;2023-12-20T12:19:19;98799.88;;;25.18;29.33
41513;BME280;27244;59.940;30.280;2023-12-20T12:21:47;98805.50;;;25.18;29.62
41513;BME280;27244;59.940;30.280;2023-12-20T12:24:14;98816.03;;;25.18;29.54
41513;BME280;27244;59.940;30.280;2023-12-20T12:26:41;98818.09;;;25.17;29.17
41513;BME280;27244;59.940;30.280;2023-12-20T12:29:08;98825.78;;;25.17;29.53
41513;BME280;27244;59.940;30.280;2023-12-20T12:31:34;98827.31;;;25.18;29.57
41513;BME280;27244;59.940;30.280;2023-12-20T12:34:01;98827.31;;;25.18;29.57
41513;BME280;27244;59.940;30.280;2023-12-20T12:36:29;98840.66;;;25.17;29.35
41513;BME280;27244;59.940;30.280;2023-12-20T12:38:57;98834.25;;;25.17;29.52
41513;BME280;27244;59.940;30.280;2023-12-20T12:41:24;98841.94;;;25.16;29.55
41513;BME280;27244;59.940;30.280;2023-12-20T12:43:51;98843.50;;;25.17;29.47
41513;BME280;27244;59.940;30.280;2023-12-20T12:46:18;98856.03;;;25.16;29.30
41513;BME280;27244;59.940;30.280;2023-12-20T12:48:44;98847.56;;;25.16;29.55
41513;BME280;27244;59.940;30.280;2023-12-20T12:51:17;98858.09;;;25.16;29.48